Time;durP1;ratioP1;P1;durP2;ratioP2;P2;SDS_P1;SDS_P2;PMS_P1;PMS_P2;Temp;Humidity;BMP_temperature;BMP_pressure;BME280_temperature;BME280_humidity;BME280_pressure;Samples;Min_cycle;Max_cycle;Signal;HPM_P1;HPM_P2
2021/06/30 00:00:06;;;;;;;15.87;8.63;;;;;;;13.28;88.92;101318.63;696292;28;847;-71
2021/06/30 00:00:27;;;;;;;16.10;8.30;;;;;;;13.22;88.87;101325.03;696099;28;958;-69
2021/06/30 00:00:47;;;;;;;14.43;8.55;;;;;;;13.15;88.90;101318.31;696349;28;914;-70
2021/06/30 00:01:08;;;;;;;16.27;8.63;;;;;;;13.24;89.05;101325.00;696335;28;851;-69
2021/06/30 00:01:28;;;;;;;12.68;8.18;;;;;;;13.37;88.68;101322.66;696214;28;1275;-68
2021/06/30 00:01:48;;;;;;;15.07;8.33;;;;;;;13.27;88.47;101320.41;696076;28;1365;-69
2021/06/30 00:02:09;;;;;;;22.67;8.60;;;;;;;13.22;88.75;101326.84;696175;28;895;-70
2021/06/30 00:02:29;;;;;;;18.83;9.30;;;;;;;13.24;89.11;101325.84;696187;28;852;-70
2021/06/30 00:02:49;;;;;;;18.13;8.67;;;;;;;13.28;89.05;101318.63;695942;28;856;-70
2021/06/30 00:03:10;;;;;;;19.50;8.70;;;;;;;13.22;89.04;101325.03;696294;28;954;-71
2021/06/30 00:03:30;;;;;;;14.77;8.60;;;;;;;13.30;89.43;101322.06;696260;28;831;-69
2021/06/30 00:03:50;;;;;;;19.83;9.10;;;;;;;13.33;89.23;101324.59;696362;28;792;-69
2021/06/30 00:04:11;;;;;;;20.42;8.70;;;;;;;13.18;88.98;101323.47;695749;28;1431;-67
2021/06/30 00:04:31;;;;;;;20.30;8.97;;;;;;;13.20;89.42;101326.03;695831;28;1420;-70
2021/06/30 00:04:52;;;;;;;19.08;9.00;;;;;;;13.26;89.40;101325.78;696255;28;810;-68
2021/06/30 00:05:12;;;;;;;18.17;9.00;;;;;;;13.22;89.41;101322.41;696153;28;796;-68
2021/06/30 00:05:32;;;;;;;18.38;8.75;;;;;;;13.21;89.76;101323.34;696245;28;939;-70
2021/06/30 00:05:53;;;;;;;16.37;8.53;;;;;;;13.24;89.74;101323.19;696361;28;805;-69
2021/06/30 00:06:17;;;;;;;16.67;9.00;;;;;;;13.21;89.68;101325.97;696171;28;863;-69
2021/06/30 00:06:38;;;;;;;15.35;9.15;;;;;;;13.15;89.70;101323.59;696145;28;895;-72
2021/06/30 00:06:58;;;;;;;18.80;8.93;;;;;;;13.16;89.61;101322.66;696267;28;1008;-68
2021/06/30 00:07:20;;;;;;;16.60;8.80;;;;;;;13.19;89.51;101319.88;696400;28;843;-69
2021/06/30 00:07:41;;;;;;;14.25;8.88;;;;;;;13.17;89.73;101326.16;696213;28;879;-71
2021/06/30 00:08:01;;;;;;;13.27;8.57;;;;;;;13.16;89.94;101317.38;695794;28;1356;-70
2021/06/30 00:08:22;;;;;;;18.25;9.00;;;;;;;13.18;89.81;101322.56;695849;28;859;-74
2021/06/30 00:08:42;;;;;;;17.67;8.80;;;;;;;13.15;89.81;101318.31;696182;28;989;-68
2021/06/30 00:09:04;;;;;;;15.60;9.03;;;;;;;13.20;89.96;101321.59;696041;28;1003;-69
2021/06/30 00:09:25;;;;;;;13.70;8.52;;;;;;;13.22;89.66;101327.69;696162;28;801;-69
2021/06/30 00:09:45;;;;;;;18.33;8.67;;;;;;;13.17;89.64;101326.16;696013;28;1913;-70
2021/06/30 00:10:08;;;;;;;15.43;8.60;;;;;;;13.19;89.69;101327.81;696282;28;816;-69
2021/06/30 00:10:28;;;;;;;17.98;8.68;;;;;;;13.15;89.72;101323.59;696131;28;918;-69
2021/06/30 00:10:48;;;;;;;19.05;8.98;;;;;;;13.14;89.96;101321.00;696332;28;903;-70
2021/06/30 00:11:09;;;;;;;17.70;9.03;;;;;;;13.15;90.15;101326.25;696185;28;793;-70
2021/06/30 00:11:29;;;;;;;14.47;9.10;;;;;;;13.15;90.07;101317.44;696316;28;1034;-68
2021/06/30 00:11:49;;;;;;;14.38;9.15;;;;;;;13.18;90.14;101317.28;696120;28;1018;-71
2021/06/30 00:12:10;;;;;;;13.33;8.77;;;;;;;13.14;89.93;101323.66;696298;28;891;-69
2021/06/30 00:12:30;;;;;;;13.75;8.88;;;;;;;13.09;89.80;101331.81;696218;28;792;-71
2021/06/30 00:12:51;;;;;;;13.53;9.07;;;;;;;13.08;89.84;101327.44;695783;28;840;-68
2021/06/30 00:13:11;;;;;;;15.70;8.73;;;;;;;13.08;90.05;101324.81;696371;28;935;-74
2021/06/30 00:13:31;;;;;;;17.07;8.73;;;;;;;13.08;90.19;101322.16;696362;28;895;-71
2021/06/30 00:13:53;;;;;;;16.13;8.67;;;;;;;13.02;90.35;101323.28;696131;28;1033;-70
2021/06/30 00:14:13;;;;;;;19.38;9.10;;;;;;;13.01;90.40;101318.06;696318;28;930;-71
2021/06/30 00:14:34;;;;;;;18.88;9.30;;;;;;;13.05;90.35;101322.28;696198;28;845;-68
2021/06/30 00:14:56;;;;;;;17.63;8.90;;;;;;;13.07;90.54;101325.72;696252;28;847;-69
2021/06/30 00:15:23;;;;;;;14.00;8.20;;;;;;;13.16;90.49;101330.59;696328;28;863;-69
2021/06/30 00:15:45;;;;;;;18.52;8.77;;;;;;;13.12;90.31;101329.03;695870;28;1864;-71
2021/06/30 00:16:05;;;;;;;16.83;9.00;;;;;;;13.11;90.10;101323.78;696345;28;867;-71
2021/06/30 00:16:31;;;;;;;15.77;8.63;;;;;;;13.09;90.28;101323.88;696072;28;832;-68
2021/06/30 00:16:52;;;;;;;20.55;8.77;;;;;;;13.08;90.18;101327.44;696291;28;867;-68
2021/06/30 00:17:13;;;;;;;16.67;8.63;;;;;;;13.17;90.48;101320.88;696302;28;919;-72
2021/06/30 00:17:33;;;;;;;14.87;8.97;;;;;;;13.15;90.34;101328.91;696410;28;804;-68
2021/06/30 00:17:53;;;;;;;16.58;8.98;;;;;;;13.14;90.27;101324.50;696171;28;1027;-69
2021/06/30 00:18:14;;;;;;;20.63;9.00;;;;;;;13.07;90.08;101320.41;696177;28;1336;-70
2021/06/30 00:18:34;;;;;;;17.73;9.20;;;;;;;13.04;90.72;101324.09;696166;28;828;-69
2021/06/30 00:18:55;;;;;;;17.83;8.95;;;;;;;13.12;90.46;101328.16;696288;28;926;-69
2021/06/30 00:19:15;;;;;;;15.33;8.83;;;;;;;13.14;90.26;101324.50;696362;28;930;-70
2021/06/30 00:19:36;;;;;;;14.53;8.83;;;;;;;13.11;90.38;101323.78;696269;28;1083;-68
2021/06/30 00:19:56;;;;;;;14.05;8.73;;;;;;;13.18;90.38;101330.53;696235;28;789;-69
2021/06/30 00:20:16;;;;;;;18.30;8.80;;;;;;;13.19;90.26;101324.31;696219;28;860;-67
2021/06/30 00:20:37;;;;;;;16.93;8.80;;;;;;;13.22;90.09;101330.34;696163;28;879;-70
2021/06/30 00:29:00;;;;;;;19.80;8.13;;;;;;;12.96;89.78;101320.03;693287;28;790;-70
2021/06/30 00:29:20;;;;;;;10.45;7.65;;;;;;;13.03;89.58;101318.84;693486;28;1009;-68
2021/06/30 00:29:40;;;;;;;10.07;7.65;;;;;;;13.07;89.63;101323.94;693602;28;1943;-69
2021/06/30 00:30:01;;;;;;;11.73;7.60;;;;;;;13.11;89.29;101323.78;691460;28;979;-71
2021/06/30 00:30:21;;;;;;;14.97;7.77;;;;;;;13.09;89.39;101318.56;696182;28;943;-68
2021/06/30 00:30:42;;;;;;;15.52;8.02;;;;;;;13.18;89.27;101315.53;696166;28;1240;-68
2021/06/30 00:31:02;;;;;;;15.80;7.82;;;;;;;13.27;88.62;101317.75;696357;28;871;-69
2021/06/30 00:31:22;;;;;;;15.17;7.70;;;;;;;13.24;88.51;101323.19;696351;28;814;-68
2021/06/30 00:31:43;;;;;;;13.07;7.63;;;;;;;13.30;88.35;101312.34;694649;28;936;-67
2021/06/30 00:32:04;;;;;;;15.50;7.75;;;;;;;13.20;88.21;101318.94;696334;28;867;-69
2021/06/30 00:32:24;;;;;;;16.40;8.02;;;;;;;13.13;88.72;101314.00;696302;28;993;-71
2021/06/30 00:32:45;;;;;;;19.43;7.83;;;;;;;13.07;88.72;101315.13;695769;28;856;-67
2021/06/30 00:33:06;;;;;;;17.17;8.18;;;;;;;13.06;88.42;101318.72;696296;28;848;-70
2021/06/30 00:33:26;;;;;;;14.10;7.43;;;;;;;13.06;88.52;101324.84;696345;28;816;-72
2021/06/30 00:33:46;;;;;;;11.67;7.50;;;;;;;13.14;88.55;101319.22;696068;28;915;-69
2021/06/30 00:34:06;;;;;;;14.63;7.43;;;;;;;13.17;88.49;101316.44;696396;28;863;-72
2021/06/30 00:34:27;;;;;;;18.92;7.22;;;;;;;13.10;88.50;101319.44;695974;28;1026;-71
2021/06/30 00:34:47;;;;;;;15.90;7.80;;;;;;;13.15;88.74;101317.44;695862;28;986;-69
2021/06/30 00:35:08;;;;;;;15.30;7.73;;;;;;;13.20;88.59;101315.44;696156;28;1002;-69
2021/06/30 00:35:28;;;;;;;12.52;7.25;;;;;;;13.24;88.24;101322.34;696116;28;1002;-68
2021/06/30 00:35:48;;;;;;;14.90;8.10;;;;;;;13.13;88.25;101317.50;695923;28;848;-69
2021/06/30 00:36:08;;;;;;;13.38;7.97;;;;;;;13.29;88.16;101315.91;696128;28;804;-74
2021/06/30 00:36:35;;;;;;;15.10;8.17;;;;;;;13.24;88.03;101312.59;696309;28;845;-68
2021/06/30 00:36:55;;;;;;;18.58;7.70;;;;;;;13.25;88.11;101318.78;696123;28;750;-69
2021/06/30 00:37:15;;;;;;;15.13;7.22;;;;;;;13.33;87.80;101315.78;696065;28;955;-71
2021/06/30 00:37:35;;;;;;;13.67;7.30;;;;;;;13.30;87.50;101314.13;696085;28;809;-72
2021/06/30 00:37:56;;;;;;;15.83;7.43;;;;;;;13.39;87.76;101316.38;696194;28;1269;-69
2021/06/30 00:38:17;;;;;;;13.00;7.40;;;;;;;13.45;87.15;101316.06;696185;28;886;-69
2021/06/30 00:38:37;;;;;;;14.30;7.50;;;;;;;13.35;86.81;101309.50;695893;28;883;-70
2021/06/30 00:38:59;;;;;;;16.53;8.20;;;;;;;13.26;87.08;101316.06;695938;28;905;-71
2021/06/30 00:39:21;;;;;;;13.27;7.78;;;;;;;13.16;87.41;101317.38;696103;28;994;-69
2021/06/30 00:39:41;;;;;;;11.57;7.55;;;;;;;13.13;87.45;101320.16;695831;28;895;-72
2021/06/30 00:40:02;;;;;;;11.00;6.93;;;;;;;13.10;87.87;101317.63;696164;28;800;-68
2021/06/30 00:40:23;;;;;;;15.15;7.60;;;;;;;13.01;87.75;101315.44;696090;28;1030;-69
2021/06/30 00:40:45;;;;;;;13.45;7.75;;;;;;;12.99;88.15;101322.56;696241;28;855;-69
2021/06/30 00:41:05;;;;;;;13.77;8.02;;;;;;;12.91;88.61;101314.97;696252;28;875;-69
2021/06/30 00:41:26;;;;;;;15.80;7.73;;;;;;;13.01;88.30;101318.91;696249;28;781;-70
2021/06/30 00:41:47;;;;;;;16.73;7.90;;;;;;;13.03;88.50;101314.41;696121;28;967;-70
2021/06/30 00:42:07;;;;;;;15.97;8.00;;;;;;;13.14;88.34;101310.41;696317;28;1026;-71
2021/06/30 00:42:31;;;;;;;16.63;8.15;;;;;;;13.10;88.31;101312.34;696105;28;966;-71
2021/06/30 00:42:51;;;;;;;19.02;8.02;;;;;;;13.15;88.82;101315.66;695693;28;869;-71
2021/06/30 00:43:11;;;;;;;19.95;7.90;;;;;;;13.07;88.21;101316.00;696335;28;813;-67
2021/06/30 00:43:32;;;;;;;20.77;8.40;;;;;;;12.93;88.85;101320.16;696069;28;931;-70
2021/06/30 00:43:52;;;;;;;15.63;7.97;;;;;;;13.04;88.91;101318.78;695594;28;1388;-69
2021/06/30 00:44:12;;;;;;;17.13;7.97;;;;;;;13.01;89.11;101318.06;696303;28;903;-72
2021/06/30 00:44:35;;;;;;;17.63;7.97;;;;;;;13.06;89.07;101318.72;696215;28;939;-72
2021/06/30 00:44:56;;;;;;;14.93;7.97;;;;;;;13.23;88.54;101317.97;696249;28;863;-70
2021/06/30 00:45:19;;;;;;;14.35;8.10;;;;;;;13.22;88.23;101319.75;696304;28;971;-69
2021/06/30 00:45:40;;;;;;;18.00;8.10;;;;;;;13.23;88.10;101316.16;696155;28;936;-70
2021/06/30 00:46:00;;;;;;;17.17;7.80;;;;;;;13.22;87.84;101314.44;696305;28;868;-71
2021/06/30 00:46:31;;;;;;;16.20;7.90;;;;;;;13.02;88.20;101311.84;696250;28;850;-70
2021/06/30 00:46:52;;;;;;;17.20;8.25;;;;;;;13.01;88.79;101318.06;696269;28;958;-71
2021/06/30 00:47:12;;;;;;;14.30;7.83;;;;;;;12.95;89.24;101310.41;696195;28;827;-70
2021/06/30 00:47:33;;;;;;;17.20;7.77;;;;;;;13.01;89.16;101315.44;696296;28;881;-69
2021/06/30 00:47:53;;;;;;;18.55;8.02;;;;;;;12.98;89.24;101315.56;696143;28;1231;-71
2021/06/30 00:48:14;;;;;;;17.92;8.38;;;;;;;13.03;89.50;101313.56;696217;28;1153;-72
2021/06/30 00:48:35;;;;;;;17.43;8.87;;;;;;;13.01;89.51;101316.28;696309;28;860;-71
2021/06/30 00:48:56;;;;;;;16.38;8.30;;;;;;;13.04;89.44;101317.91;696287;28;911;-71
2021/06/30 00:49:16;;;;;;;17.73;8.00;;;;;;;13.06;89.06;101314.28;696167;28;995;-70
2021/06/30 00:49:37;;;;;;;19.23;8.17;;;;;;;13.13;88.92;101317.50;696136;28;1956;-69
2021/06/30 00:49:58;;;;;;;17.83;8.23;;;;;;;13.11;89.02;101311.44;696329;28;943;-68
2021/06/30 00:50:19;;;;;;;18.45;8.45;;;;;;;12.95;88.99;101315.69;696251;28;879;-71
2021/06/30 00:50:40;;;;;;;18.02;8.50;;;;;;;12.93;89.35;101306.94;696332;28;954;-69
2021/06/30 00:51:00;;;;;;;20.35;8.77;;;;;;;12.83;89.65;101310.00;696328;28;816;-69
2021/06/30 00:51:21;;;;;;;21.63;8.90;;;;;;;12.73;89.68;101306.06;696297;28;845;-70
2021/06/30 00:51:41;;;;;;;20.02;8.88;;;;;;;12.80;89.86;101310.16;696188;28;973;-69
2021/06/30 00:52:02;;;;;;;18.37;8.50;;;;;;;12.77;90.14;101310.28;696255;28;919;-71
2021/06/30 00:52:23;;;;;;;19.67;8.77;;;;;;;12.81;89.85;101311.00;695999;28;1456;-69
2021/06/30 00:52:44;;;;;;;16.40;8.73;;;;;;;12.85;89.94;101309.94;693395;28;1459;-72
2021/06/30 00:53:04;;;;;;;15.27;8.55;;;;;;;12.82;89.72;101304.78;693580;28;1006;-70
2021/06/30 00:53:25;;;;;;;17.20;8.45;;;;;;;12.86;89.93;101311.63;693489;28;900;-73
2021/06/30 00:53:45;;;;;;;16.07;8.83;;;;;;;12.97;89.93;101313.81;693477;28;915;-68
2021/06/30 00:54:05;;;;;;;18.53;9.40;;;;;;;13.03;90.01;101308.25;693554;28;1340;-70
2021/06/30 00:54:26;;;;;;;21.80;8.90;;;;;;;13.06;89.92;101310.75;693560;28;824;-69
2021/06/30 00:54:46;;;;;;;21.00;9.03;;;;;;;12.93;89.65;101310.44;693391;28;918;-76
2021/06/30 00:55:07;;;;;;;20.50;8.80;;;;;;;12.83;90.25;101312.66;693479;28;895;-68
2021/06/30 00:55:27;;;;;;;21.30;9.00;;;;;;;12.82;90.33;101305.63;693483;28;1237;-70
2021/06/30 00:55:50;;;;;;;17.90;8.97;;;;;;;12.84;90.12;101308.22;693429;28;900;-70
2021/06/30 00:56:10;;;;;;;18.83;9.32;;;;;;;12.87;90.50;101307.22;693383;28;1018;-72
2021/06/30 00:56:31;;;;;;;23.05;9.23;;;;;;;12.75;90.26;101304.19;693539;28;863;-69
2021/06/30 00:56:51;;;;;;;23.35;9.15;;;;;;;12.76;90.54;101308.53;693592;28;871;-69
2021/06/30 00:57:12;;;;;;;20.60;8.90;;;;;;;12.78;90.30;101306.69;693468;28;1041;-76
2021/06/30 00:57:32;;;;;;;24.13;9.27;;;;;;;12.73;90.57;101306.06;693275;28;1034;-71
2021/06/30 00:57:53;;;;;;;24.87;9.40;;;;;;;12.70;90.89;101303.53;693414;28;1427;-70
2021/06/30 00:58:13;;;;;;;18.73;9.00;;;;;;;12.78;90.89;101309.34;693422;28;1054;-70
2021/06/30 00:58:34;;;;;;;21.10;9.70;;;;;;;12.77;90.57;101302.34;693500;28;1014;-70
2021/06/30 00:58:57;;;;;;;22.13;9.38;;;;;;;12.76;90.86;101305.88;693443;28;1058;-68
2021/06/30 00:59:18;;;;;;;18.83;9.65;;;;;;;12.79;90.50;101311.06;693389;28;948;-69
2021/06/30 00:59:39;;;;;;;22.92;9.60;;;;;;;12.72;90.99;101304.31;693300;28;971;-70
2021/06/30 00:59:59;;;;;;;23.67;9.50;;;;;;;12.78;91.06;101303.19;693520;28;897;-70
2021/06/30 01:00:19;;;;;;;22.77;9.57;;;;;;;12.71;90.67;101305.25;693493;28;1023;-72
2021/06/30 01:00:40;;;;;;;20.67;9.75;;;;;;;12.65;91.09;101305.50;693492;28;859;-68
2021/06/30 01:01:00;;;;;;;18.43;9.13;;;;;;;12.67;91.06;101305.44;693466;28;921;-72
2021/06/30 01:01:22;;;;;;;19.60;9.00;;;;;;;12.71;91.31;101307.88;693571;28;800;-67
2021/06/30 01:01:42;;;;;;;17.75;9.07;;;;;;;12.68;90.85;101310.66;693259;28;982;-68
2021/06/30 01:02:03;;;;;;;19.00;9.25;;;;;;;12.76;90.80;101310.31;693592;28;829;-71
2021/06/30 01:02:24;;;;;;;16.08;8.88;;;;;;;12.75;91.03;101312.13;693431;28;1034;-72
2021/06/30 01:02:44;;;;;;;20.23;8.90;;;;;;;12.78;90.76;101306.69;693151;28;987;-70
2021/06/30 01:03:04;;;;;;;20.05;9.15;;;;;;;12.73;90.77;101313.09;695010;28;1479;-71
2021/06/30 01:03:24;;;;;;;19.33;9.17;;;;;;;12.69;90.92;101315.00;696270;28;829;-69
2021/06/30 01:03:47;;;;;;;21.03;9.67;;;;;;;12.71;90.92;101312.31;695717;28;843;-69
2021/06/30 01:04:07;;;;;;;24.77;9.90;;;;;;;12.71;91.12;101313.19;696118;28;836;-67
2021/06/30 01:04:27;;;;;;;19.73;9.43;;;;;;;12.76;91.25;101310.31;696029;28;780;-70
2021/06/30 01:04:48;;;;;;;16.70;9.20;;;;;;;12.89;90.92;101310.66;695922;28;1022;-70
2021/06/30 01:05:08;;;;;;;19.90;9.57;;;;;;;12.80;90.98;101312.78;696031;28;893;-68
2021/06/30 01:05:29;;;;;;;22.02;9.38;;;;;;;12.78;90.62;101309.34;696037;28;832;-69
2021/06/30 01:05:49;;;;;;;19.43;9.27;;;;;;;12.79;90.56;101311.06;696021;28;927;-69
2021/06/30 01:06:09;;;;;;;19.47;8.93;;;;;;;12.76;90.87;101315.63;696320;28;812;-70
2021/06/30 01:06:30;;;;;;;15.52;8.75;;;;;;;12.86;90.90;101316.06;696054;28;860;-73
2021/06/30 01:06:50;;;;;;;13.97;8.63;;;;;;;12.93;90.59;101314.88;696223;28;1034;-71
2021/06/30 01:07:10;;;;;;;15.77;9.23;;;;;;;12.93;90.59;101312.22;696265;28;935;-70
2021/06/30 01:07:30;;;;;;;17.58;9.10;;;;;;;12.87;90.20;101312.50;696144;28;1053;-69
2021/06/30 01:07:51;;;;;;;19.77;9.00;;;;;;;12.87;90.42;101309.84;695974;28;1244;-68
2021/06/30 01:08:11;;;;;;;19.30;8.82;;;;;;;12.95;90.57;101310.41;696314;28;879;-69
2021/06/30 01:08:33;;;;;;;19.63;9.00;;;;;;;12.95;90.30;101310.41;696089;28;868;-69
2021/06/30 01:08:53;;;;;;;18.13;9.18;;;;;;;12.89;90.46;101305.38;696327;28;999;-68
2021/06/30 01:09:13;;;;;;;18.67;9.40;;;;;;;12.85;90.46;101309.06;696163;28;820;-67
2021/06/30 01:09:34;;;;;;;19.13;9.60;;;;;;;12.92;90.61;101313.16;695879;28;1969;-70
2021/06/30 01:09:54;;;;;;;20.75;9.38;;;;;;;12.91;90.30;101314.09;696307;28;979;-68
2021/06/30 01:10:14;;;;;;;16.87;8.77;;;;;;;12.86;90.43;101309.00;696112;28;931;-72
2021/06/30 01:10:34;;;;;;;13.10;8.33;;;;;;;12.88;90.35;101308.94;696210;28;931;-70
2021/06/30 01:10:55;;;;;;;15.97;8.83;;;;;;;12.92;90.34;101313.16;696309;28;919;-69
2021/06/30 01:11:16;;;;;;;17.50;9.18;;;;;;;12.88;90.46;101308.94;696121;28;1002;-71
2021/06/30 01:11:37;;;;;;;16.65;9.00;;;;;;;12.83;90.13;101307.38;696046;28;812;-72
2021/06/30 01:11:59;;;;;;;11.77;8.88;;;;;;;12.85;90.08;101303.78;696330;28;913;-72
2021/06/30 01:12:19;;;;;;;10.90;8.50;;;;;;;12.82;90.15;101307.41;696185;28;994;-69
2021/06/30 01:12:40;;;;;;;10.75;7.85;;;;;;;12.80;90.27;101302.22;695948;28;919;-68
2021/06/30 01:13:03;;;;;;;15.80;8.17;;;;;;;12.81;90.35;101303.91;696024;28;915;-70
2021/06/30 01:13:24;;;;;;;18.00;8.52;;;;;;;12.81;90.23;101305.72;696230;28;848;-69
2021/06/30 01:13:44;;;;;;;18.27;8.80;;;;;;;12.82;90.39;101305.63;696122;28;1045;-68
2021/06/30 01:14:04;;;;;;;15.65;8.45;;;;;;;12.85;90.06;101304.66;696158;28;927;-69
2021/06/30 01:14:27;;;;;;;11.13;8.20;;;;;;;12.84;90.39;101305.56;696236;28;792;-70
2021/06/30 01:14:47;;;;;;;14.15;8.45;;;;;;;12.85;89.96;101303.78;696244;28;848;-71
2021/06/30 01:15:10;;;;;;;19.90;9.20;;;;;;;12.79;90.22;101305.75;696189;28;978;-72
2021/06/30 01:15:30;;;;;;;16.13;8.60;;;;;;;12.75;90.46;101300.69;696133;28;996;-68
2021/06/30 01:15:55;;;;;;;14.83;8.73;;;;;;;12.76;90.34;101303.25;695832;28;1471;-69
2021/06/30 01:16:15;;;;;;;18.23;8.82;;;;;;;12.78;90.41;101304.06;696205;28;946;-69
2021/06/30 01:16:36;;;;;;;15.33;8.67;;;;;;;12.74;90.29;101301.63;696716;28;773;-69
2021/06/30 01:16:57;;;;;;;14.57;8.82;;;;;;;12.73;90.31;101299.88;696718;28;1006;-68
2021/06/30 01:17:17;;;;;;;14.50;8.63;;;;;;;12.71;90.45;101297.31;696772;28;828;-70
2021/06/30 01:17:38;;;;;;;11.80;8.17;;;;;;;12.72;90.35;101303.44;696608;28;806;-68
2021/06/30 01:17:58;;;;;;;14.70;8.40;;;;;;;12.78;90.46;101304.06;696764;28;1335;-72
2021/06/30 01:18:20;;;;;;;16.87;9.00;;;;;;;12.80;90.47;101302.22;696673;28;880;-71
2021/06/30 01:18:40;;;;;;;14.43;8.95;;;;;;;12.81;90.73;101297.78;696605;28;1041;-70
2021/06/30 01:19:01;;;;;;;15.25;9.02;;;;;;;12.76;90.43;101291.81;696511;28;983;-72
2021/06/30 01:19:22;;;;;;;16.13;8.80;;;;;;;12.73;90.53;101302.53;696608;28;895;-69
2021/06/30 01:19:42;;;;;;;14.55;9.07;;;;;;;12.73;90.53;101299.88;696278;28;825;-68
2021/06/30 01:20:05;;;;;;;16.02;9.45;;;;;;;12.80;90.75;101303.97;696613;28;1045;-70
2021/06/30 01:20:25;;;;;;;17.75;8.93;;;;;;;12.75;90.68;101298.88;696305;28;1072;-70
2021/06/30 01:20:45;;;;;;;16.27;8.60;;;;;;;12.73;90.60;101303.41;696535;28;1022;-72
2021/06/30 01:21:09;;;;;;;11.20;8.30;;;;;;;12.73;90.45;101306.06;696699;28;810;-70
2021/06/30 01:21:29;;;;;;;16.35;8.48;;;;;;;12.69;90.53;101299.16;696441;28;935;-72
2021/06/30 01:21:50;;;;;;;16.40;8.98;;;;;;;12.70;90.83;101300.88;696366;28;1057;-70
2021/06/30 01:22:11;;;;;;;16.70;9.20;;;;;;;12.70;90.96;101303.53;696576;28;951;-69
2021/06/30 01:22:31;;;;;;;12.60;8.70;;;;;;;12.73;90.98;101303.41;696279;28;935;-66
2021/06/30 01:23:03;;;;;;;10.97;8.43;;;;;;;12.73;90.75;101300.75;696011;28;915;-70
2021/06/30 01:23:24;;;;;;;14.38;8.65;;;;;;;12.75;90.97;101296.25;696529;28;863;-69
2021/06/30 01:23:45;;;;;;;15.27;8.52;;;;;;;12.76;90.62;101295.31;696586;28;915;-68
2021/06/30 01:24:05;;;;;;;11.10;8.30;;;;;;;12.79;90.79;101303.13;696783;28;839;-72
2021/06/30 01:24:26;;;;;;;11.50;7.97;;;;;;;12.77;90.09;101297.06;696685;28;828;-68
2021/06/30 01:24:50;;;;;;;13.40;8.23;;;;;;;12.78;90.33;101293.47;696384;28;937;-69
2021/06/30 01:25:11;;;;;;;15.27;8.32;;;;;;;12.72;90.11;101292.88;696438;28;802;-67
2021/06/30 01:25:31;;;;;;;10.75;7.68;;;;;;;12.74;90.22;101291.03;696518;28;978;-70
2021/06/30 01:25:53;;;;;;;11.77;8.03;;;;;;;12.79;90.22;101294.31;696364;28;965;-70
2021/06/30 01:26:13;;;;;;;15.32;8.32;;;;;;;12.87;90.12;101297.50;696453;28;997;-71
2021/06/30 01:26:36;;;;;;;17.17;8.60;;;;;;;12.82;90.26;101294.19;696601;28;985;-71
2021/06/30 01:26:57;;;;;;;21.55;8.95;;;;;;;12.78;90.42;101301.41;696662;28;1025;-70
2021/06/30 01:27:18;;;;;;;19.50;8.60;;;;;;;12.70;90.11;101292.97;696654;28;907;-70
2021/06/30 01:27:39;;;;;;;14.02;8.45;;;;;;;12.68;90.26;101297.44;696589;28;956;-71
2021/06/30 01:27:59;;;;;;;14.55;8.85;;;;;;;12.71;90.66;101297.31;696331;28;1346;-70
2021/06/30 01:28:22;;;;;;;13.73;8.80;;;;;;;12.76;90.41;101297.97;696541;28;894;-72
2021/06/30 01:28:42;;;;;;;14.10;9.00;;;;;;;12.80;90.49;101299.56;696650;28;841;-70
2021/06/30 01:29:03;;;;;;;11.33;7.90;;;;;;;12.90;90.43;101302.63;696404;28;944;-72
2021/06/30 01:29:23;;;;;;;14.07;8.00;;;;;;;12.90;90.43;101301.78;696639;28;929;-70
2021/06/30 01:29:44;;;;;;;17.10;8.53;;;;;;;12.87;90.26;101302.81;696591;28;1933;-70
2021/06/30 01:30:06;;;;;;;17.77;8.73;;;;;;;12.83;90.28;101296.78;696737;28;857;-70
2021/06/30 01:30:29;;;;;;;19.23;8.95;;;;;;;12.78;90.58;101301.41;696644;28;952;-69
2021/06/30 01:30:52;;;;;;;16.02;9.07;;;;;;;12.74;90.35;101299.81;696411;28;909;-72
2021/06/30 01:31:15;;;;;;;17.02;9.05;;;;;;;12.80;90.22;101307.50;696455;28;807;-72
2021/06/30 01:31:35;;;;;;;20.40;9.80;;;;;;;12.76;90.69;101305.03;696474;28;882;-71
2021/06/30 01:31:56;;;;;;;16.58;8.98;;;;;;;12.88;90.56;101303.66;696535;28;943;-72
2021/06/30 01:32:16;;;;;;;18.17;9.07;;;;;;;12.93;90.17;101301.66;696591;28;966;-70
2021/06/30 01:32:36;;;;;;;14.57;8.90;;;;;;;12.91;90.04;101306.16;696604;28;970;-72
2021/06/30 01:32:57;;;;;;;12.52;8.40;;;;;;;12.86;89.75;101306.34;695316;28;1423;-70
2021/06/30 01:33:18;;;;;;;16.93;8.90;;;;;;;12.77;90.23;101307.63;694011;28;828;-70
2021/06/30 01:33:43;;;;;;;20.15;9.50;;;;;;;12.75;90.08;101304.19;693884;28;863;-69
2021/06/30 01:34:03;;;;;;;18.10;9.30;;;;;;;12.83;89.93;101302.06;693951;28;938;-68
2021/06/30 01:34:26;;;;;;;15.05;9.20;;;;;;;12.86;89.94;101305.50;694153;28;946;-70
2021/06/30 01:34:47;;;;;;;16.70;8.98;;;;;;;12.92;90.19;101311.38;693916;28;1017;-68
2021/06/30 01:35:07;;;;;;;16.90;8.80;;;;;;;12.85;90.07;101309.06;693885;28;851;-71
2021/06/30 01:35:28;;;;;;;24.70;9.40;;;;;;;12.80;89.97;101311.91;693982;28;851;-69
2021/06/30 01:35:51;;;;;;;22.65;9.32;;;;;;;12.72;90.26;101308.75;693840;28;863;-69
2021/06/30 01:36:12;;;;;;;17.67;9.50;;;;;;;12.74;90.48;101302.47;694006;28;918;-70
2021/06/30 01:36:52;;;;;;;14.07;9.20;;;;;;;12.76;90.27;101305.88;693907;28;852;-70
2021/06/30 01:37:16;;;;;;;11.93;8.80;;;;;;;12.80;89.87;101302.22;693976;28;891;-71
2021/06/30 01:37:46;;;;;;;11.80;8.70;;;;;;;12.82;90.25;101310.06;694032;28;1117;-70
2021/06/30 01:38:07;;;;;;;10.70;8.32;;;;;;;12.83;89.74;101307.38;693922;28;920;-69
2021/06/30 01:38:29;;;;;;;12.80;8.47;;;;;;;12.84;89.68;101308.22;693967;28;950;-70
2021/06/30 01:38:49;;;;;;;15.50;8.82;;;;;;;12.91;89.87;101314.09;693844;28;1014;-69
2021/06/30 01:39:10;;;;;;;15.70;8.97;;;;;;;12.85;89.65;101304.66;693815;28;888;-68
2021/06/30 01:39:30;;;;;;;15.40;9.27;;;;;;;12.81;89.68;101309.22;693834;28;848;-69
2021/06/30 01:39:50;;;;;;;16.08;9.18;;;;;;;12.84;89.81;101308.22;693824;28;970;-69
2021/06/30 01:40:11;;;;;;;15.63;9.17;;;;;;;12.88;89.97;101314.25;693982;28;923;-70
2021/06/30 01:40:40;;;;;;;14.02;8.95;;;;;;;12.90;90.11;101312.38;693822;28;1018;-67
2021/06/30 01:41:03;;;;;;;11.52;8.40;;;;;;;12.92;89.93;101310.53;693942;28;879;-68
2021/06/30 01:41:26;;;;;;;15.43;8.93;;;;;;;12.91;89.96;101308.81;693837;28;875;-68
2021/06/30 01:41:54;;;;;;;14.50;9.23;;;;;;;12.92;89.97;101306.09;693634;28;946;-72
2021/06/30 01:42:40;;;;;;;11.05;8.48;;;;;;;12.93;89.79;101307.81;693905;28;906;-70
2021/06/30 01:43:05;;;;;;;16.50;9.32;;;;;;;12.85;89.92;101303.78;695625;28;1467;-71
2021/06/30 01:43:35;;;;;;;15.27;8.65;;;;;;;12.80;89.62;101299.56;696545;28;918;-67
2021/06/30 01:44:35;;;;;;;12.27;8.75;;;;;;;12.83;89.53;101302.06;696736;28;911;-69
2021/06/30 01:45:03;;;;;;;20.88;9.60;;;;;;;12.73;90.01;101303.41;696682;28;898;-70
2021/06/30 01:45:27;;;;;;;15.70;9.35;;;;;;;12.72;90.13;101303.44;696522;28;855;-71
2021/06/30 01:46:08;;;;;;;16.38;9.35;;;;;;;12.69;90.15;101304.44;696562;28;1020;-71
2021/06/30 01:46:45;;;;;;;14.20;9.38;;;;;;;12.75;90.25;101306.81;696485;28;883;-70
2021/06/30 01:47:25;;;;;;;14.48;9.00;;;;;;;12.73;90.36;101295.47;696714;28;891;-69
2021/06/30 01:47:46;;;;;;;17.35;9.63;;;;;;;12.72;90.47;101293.72;696056;28;1788;-67
2021/06/30 01:48:06;;;;;;;16.43;9.50;;;;;;;12.76;90.75;101294.47;696482;28;982;-69
2021/06/30 01:48:26;;;;;;;15.82;9.43;;;;;;;12.75;90.49;101293.59;696737;28;1045;-70
2021/06/30 01:48:47;;;;;;;17.23;9.20;;;;;;;12.74;90.60;101299.81;696737;28;840;-71
2021/06/30 01:49:08;;;;;;;15.07;8.95;;;;;;;12.76;90.57;101297.97;696675;28;954;-70
2021/06/30 01:49:28;;;;;;;17.15;9.65;;;;;;;12.76;90.52;101295.31;696673;28;1002;-70
2021/06/30 01:49:48;;;;;;;14.23;9.10;;;;;;;12.75;90.55;101293.59;696436;28;1910;-69
2021/06/30 01:50:10;;;;;;;14.03;9.40;;;;;;;12.72;90.67;101293.72;696729;28;856;-70
2021/06/30 01:50:30;;;;;;;12.07;8.82;;;;;;;12.78;90.82;101298.75;696758;28;951;-69